sensor_id;sensor_type;location;lat;lon;timestamp;pressure;altitude;pressure_sealevel;temperature;humidity
76519;BME280;67029;51.054;13.798;2023-03-01T00:02:04;101748.98;;;3.07;53.71
76519;BME280;67029;51.054;13.798;2023-03-01T00:04:34;101750.94;;;3.05;53.71
76519;BME280;67029;51.054;13.798;2023-03-01T00:07:04;101750.46;;;3.04;53.85
76519;BME280;67029;51.054;13.798;2023-03-01T00:09:35;101750.16;;;3.01;53.78
76519;BME280;67029;51.054;13.798;2023-03-01T00:12:05;101750.03;;;2.99;53.89
76519;BME280;67029;51.054;13.798;2023-03-01T00:14:35;101749.03;;;2.97;53.88
76519;BME280;67029;51.054;13.798;2023-03-01T00:17:05;101748.81;;;2.94;53.70
76519;BME280;67029;51.054;13.798;2023-03-01T00:19:35;101749.61;;;2.93;53.82
76519;BME280;67029;51.054;13.798;2023-03-01T00:22:05;101750.29;;;2.91;53.91
76519;BME280;67029;51.054;13.798;2023-03-01T00:24:35;101747.66;;;2.88;53.88
76519;BME280;67029;51.054;13.798;2023-03-01T00:27:05;101749.23;;;2.88;54.03
76519;BME280;67029;51.054;13.798;2023-03-01T00:29:35;101749.95;;;2.85;53.99
76519;BME280;67029;51.054;13.798;2023-03-01T00:32:05;101748.88;;;2.83;54.26
76519;BME280;67029;51.054;13.798;2023-03-01T00:34:35;101749.22;;;2.81;54.14
76519;BME280;67029;51.054;13.798;2023-03-01T00:37:05;101746.73;;;2.78;54.24
76519;BME280;67029;51.054;13.798;2023-03-01T00:39:35;101746.70;;;2.75;54.29
76519;BME280;67029;51.054;13.798;2023-03-01T00:42:05;101742.36;;;2.71;54.19
76519;BME280;67029;51.054;13.798;2023-03-01T00:44:35;101734.70;;;2.67;54.14
76519;BME280;67029;51.054;13.798;2023-03-01T00:47:05;101733.27;;;2.66;54.38
76519;BME280;67029;51.054;13.798;2023-03-01T00:49:35;101732.00;;;2.66;54.59
76519;BME280;67029;51.054;13.798;2023-03-01T00:52:05;101726.74;;;2.64;54.63
76519;BME280;67029;51.054;13.798;2023-03-01T00:54:35;101721.81;;;2.61;54.66
76519;BME280;67029;51.054;13.798;2023-03-01T00:57:05;101721.15;;;2.58;54.79
76519;BME280;67029;51.054;13.798;2023-03-01T00:59:35;101723.80;;;2.53;54.60
76519;BME280;67029;51.054;13.798;2023-03-01T01:02:05;101727.25;;;2.52;54.84
76519;BME280;67029;51.054;13.798;2023-03-01T01:04:35;101727.02;;;2.51;54.81
76519;BME280;67029;51.054;13.798;2023-03-01T01:07:05;101726.83;;;2.48;54.91
76519;BME280;67029;51.054;13.798;2023-03-01T01:09:35;101723.08;;;2.46;55.04
76519;BME280;67029;51.054;13.798;2023-03-01T01:12:06;101722.88;;;2.45;55.11
76519;BME280;67029;51.054;13.798;2023-03-01T01:14:36;101727.05;;;2.41;55.02
76519;BME280;67029;51.054;13.798;2023-03-01T01:17:06;101727.80;;;2.39;54.89
76519;BME280;67029;51.054;13.798;2023-03-01T01:19:36;101725.13;;;2.37;55.02
76519;BME280;67029;51.054;13.798;2023-03-01T01:22:06;101719.62;;;2.37;55.17
76519;BME280;67029;51.054;13.798;2023-03-01T01:24:36;101714.54;;;2.35;55.04
76519;BME280;67029;51.054;13.798;2023-03-01T01:27:06;101716.69;;;2.32;55.03
76519;BME280;67029;51.054;13.798;2023-03-01T01:29:36;101716.02;;;2.32;55.25
76519;BME280;67029;51.054;13.798;2023-03-01T01:32:06;101708.72;;;2.32;55.46
76519;BME280;67029;51.054;13.798;2023-03-01T01:34:36;101703.47;;;2.30;55.39
76519;BME280;67029;51.054;13.798;2023-03-01T01:37:06;101708.20;;;2.28;55.32
76519;BME280;67029;51.054;13.798;2023-03-01T01:39:36;101710.62;;;2.26;55.35
76519;BME280;67029;51.054;13.798;2023-03-01T01:42:17;101705.16;;;2.24;55.46
76519;BME280;67029;51.054;13.798;2023-03-01T01:44:36;101700.60;;;2.21;55.38
76519;BME280;67029;51.054;13.798;2023-03-01T01:47:18;101704.27;;;2.20;55.35
76519;BME280;67029;51.054;13.798;2023-03-01T01:49:47;101705.77;;;2.16;55.16
76519;BME280;67029;51.054;13.798;2023-03-01T01:52:24;101709.42;;;2.15;55.24
76519;BME280;67029;51.054;13.798;2023-03-01T01:54:44;101707.86;;;2.18;55.48
76519;BME280;67029;51.054;13.798;2023-03-01T01:57:13;101704.99;;;2.17;55.52
76519;BME280;67029;51.054;13.798;2023-03-01T01:59:43;101704.15;;;2.14;55.55
76519;BME280;67029;51.054;13.798;2023-03-01T02:02:11;101701.97;;;2.12;55.41
76519;BME280;67029;51.054;13.798;2023-03-01T02:04:40;101698.87;;;2.08;55.38
76519;BME280;67029;51.054;13.798;2023-03-01T02:07:16;101695.53;;;2.08;55.40
76519;BME280;67029;51.054;13.798;2023-03-01T02:09:44;101692.70;;;2.08;55.50
76519;BME280;67029;51.054;13.798;2023-03-01T02:12:11;101696.72;;;2.06;55.42
76519;BME280;67029;51.054;13.798;2023-03-01T02:14:41;101696.61;;;2.04;55.51
76519;BME280;67029;51.054;13.798;2023-03-01T02:17:13;101689.55;;;2.03;55.43
76519;BME280;67029;51.054;13.798;2023-03-01T02:22:24;101684.47;;;1.97;55.33
76519;BME280;67029;51.054;13.798;2023-03-01T02:27:13;101669.77;;;1.92;55.31
76519;BME280;67029;51.054;13.798;2023-03-01T02:29:43;101669.52;;;1.90;55.55
76519;BME280;67029;51.054;13.798;2023-03-01T02:32:14;101670.16;;;1.91;55.58
76519;BME280;67029;51.054;13.798;2023-03-01T02:34:43;101671.92;;;1.90;55.51
76519;BME280;67029;51.054;13.798;2023-03-01T02:37:15;101668.23;;;1.89;55.52
76519;BME280;67029;51.054;13.798;2023-03-01T02:39:48;101663.55;;;1.87;55.61
76519;BME280;67029;51.054;13.798;2023-03-01T02:42:21;101669.99;;;1.84;55.63
76519;BME280;67029;51.054;13.798;2023-03-01T02:44:44;101662.66;;;1.80;55.61
76519;BME280;67029;51.054;13.798;2023-03-01T02:47:14;101665.15;;;1.78;55.60
76519;BME280;67029;51.054;13.798;2023-03-01T02:49:44;101658.20;;;1.75;55.53
76519;BME280;67029;51.054;13.798;2023-03-01T02:52:37;101660.19;;;1.73;55.57
76519;BME280;67029;51.054;13.798;2023-03-01T02:57:16;101657.58;;;1.69;55.48
76519;BME280;67029;51.054;13.798;2023-03-01T02:59:46;101652.59;;;1.67;55.56
76519;BME280;67029;51.054;13.798;2023-03-01T03:02:21;101655.93;;;1.67;55.67
76519;BME280;67029;51.054;13.798;2023-03-01T03:04:46;101656.44;;;1.64;55.48
76519;BME280;67029;51.054;13.798;2023-03-01T03:07:16;101654.73;;;1.61;55.51
76519;BME280;67029;51.054;13.798;2023-03-01T03:09:46;101656.23;;;1.59;55.43
76519;BME280;67029;51.054;13.798;2023-03-01T03:12:16;101649.33;;;1.56;55.48
76519;BME280;67029;51.054;13.798;2023-03-01T03:14:46;101651.23;;;1.57;55.55
76519;BME280;67029;51.054;13.798;2023-03-01T03:17:16;101652.45;;;1.56;55.55
76519;BME280;67029;51.054;13.798;2023-03-01T03:19:46;101650.95;;;1.54;55.75
76519;BME280;67029;51.054;13.798;2023-03-01T03:22:16;101652.86;;;1.50;55.69
76519;BME280;67029;51.054;13.798;2023-03-01T03:24:46;101649.44;;;1.46;55.79
76519;BME280;67029;51.054;13.798;2023-03-01T03:27:16;101648.53;;;1.45;55.88
76519;BME280;67029;51.054;13.798;2023-03-01T03:29:46;101641.56;;;1.41;55.81
76519;BME280;67029;51.054;13.798;2023-03-01T03:32:16;101641.25;;;1.39;55.88
76519;BME280;67029;51.054;13.798;2023-03-01T03:34:46;101647.89;;;1.36;55.85
76519;BME280;67029;51.054;13.798;2023-03-01T03:37:16;101645.81;;;1.33;55.79
76519;BME280;67029;51.054;13.798;2023-03-01T03:39:47;101637.95;;;1.33;55.96
76519;BME280;67029;51.054;13.798;2023-03-01T03:42:17;101631.94;;;1.31;55.70
76519;BME280;67029;51.054;13.798;2023-03-01T03:44:47;101630.79;;;1.30;55.78
76519;BME280;67029;51.054;13.798;2023-03-01T03:47:17;101631.82;;;1.33;55.89
76519;BME280;67029;51.054;13.798;2023-03-01T03:49:47;101632.05;;;1.30;55.82
76519;BME280;67029;51.054;13.798;2023-03-01T03:52:17;101628.21;;;1.28;55.86
76519;BME280;67029;51.054;13.798;2023-03-01T03:54:47;101628.28;;;1.24;55.78
76519;BME280;67029;51.054;13.798;2023-03-01T03:57:17;101632.16;;;1.25;56.12
76519;BME280;67029;51.054;13.798;2023-03-01T03:59:47;101633.36;;;1.22;55.91
76519;BME280;67029;51.054;13.798;2023-03-01T04:02:17;101634.14;;;1.19;55.96
76519;BME280;67029;51.054;13.798;2023-03-01T04:04:47;101639.39;;;1.19;56.13
76519;BME280;67029;51.054;13.798;2023-03-01T04:07:17;101647.78;;;1.18;55.92
76519;BME280;67029;51.054;13.798;2023-03-01T04:09:47;101654.22;;;1.16;55.94
76519;BME280;67029;51.054;13.798;2023-03-01T04:12:17;101658.11;;;1.15;56.02
76519;BME280;67029;51.054;13.798;2023-03-01T04:14:47;101654.25;;;1.14;56.03
76519;BME280;67029;51.054;13.798;2023-03-01T04:17:17;101652.27;;;1.13;56.09
76519;BME280;67029;51.054;13.798;2023-03-01T04:19:47;101654.33;;;1.12;56.07
76519;BME280;67029;51.054;13.798;2023-03-01T04:22:17;101650.45;;;1.10;56.04
76519;BME280;67029;51.054;13.798;2023-03-01T04:24:47;101641.42;;;1.07;56.03
76519;BME280;67029;51.054;13.798;2023-03-01T04:27:17;101641.89;;;1.04;55.98
76519;BME280;67029;51.054;13.798;2023-03-01T04:29:47;101638.41;;;1.05;56.19
76519;BME280;67029;51.054;13.798;2023-03-01T04:32:17;101643.95;;;1.02;56.09
76519;BME280;67029;51.054;13.798;2023-03-01T04:34:47;101644.45;;;1.00;56.20
76519;BME280;67029;51.054;13.798;2023-03-01T04:37:17;101644.69;;;0.98;56.30
76519;BME280;67029;51.054;13.798;2023-03-01T04:39:47;101641.91;;;0.94;56.30
76519;BME280;67029;51.054;13.798;2023-03-01T04:42:18;101644.55;;;0.90;56.30
76519;BME280;67029;51.054;13.798;2023-03-01T04:44:48;101636.02;;;0.87;56.41
76519;BME280;67029;51.054;13.798;2023-03-01T04:47:18;101639.22;;;0.86;56.56
76519;BME280;67029;51.054;13.798;2023-03-01T04:49:48;101639.09;;;0.85;56.63
76519;BME280;67029;51.054;13.798;2023-03-01T04:52:18;101639.98;;;0.78;56.43
76519;BME280;67029;51.054;13.798;2023-03-01T04:54:48;101646.95;;;0.75;56.58
76519;BME280;67029;51.054;13.798;2023-03-01T04:57:18;101651.94;;;0.75;56.74
76519;BME280;67029;51.054;13.798;2023-03-01T04:59:48;101651.67;;;0.73;56.50
76519;BME280;67029;51.054;13.798;2023-03-01T05:02:18;101650.53;;;0.74;56.72
76519;BME280;67029;51.054;13.798;2023-03-01T05:04:48;101648.20;;;0.73;56.65
76519;BME280;67029;51.054;13.798;2023-03-01T05:07:18;101644.12;;;0.72;56.65
76519;BME280;67029;51.054;13.798;2023-03-01T05:09:48;101644.83;;;0.71;56.69
76519;BME280;67029;51.054;13.798;2023-03-01T05:12:18;101643.67;;;0.70;56.67
76519;BME280;67029;51.054;13.798;2023-03-01T05:14:48;101640.47;;;0.63;56.53
76519;BME280;67029;51.054;13.798;2023-03-01T05:17:18;101645.17;;;0.59;56.52
76519;BME280;67029;51.054;13.798;2023-03-01T05:19:48;101635.26;;;0.59;56.58
76519;BME280;67029;51.054;13.798;2023-03-01T05:22:18;101639.78;;;0.60;56.51
76519;BME280;67029;51.054;13.798;2023-03-01T05:24:48;101637.51;;;0.57;56.58
76519;BME280;67029;51.054;13.798;2023-03-01T05:27:18;101641.66;;;0.58;56.50
76519;BME280;67029;51.054;13.798;2023-03-01T05:29:48;101630.59;;;0.57;56.47
76519;BME280;67029;51.054;13.798;2023-03-01T05:32:18;101632.60;;;0.56;56.42
76519;BME280;67029;51.054;13.798;2023-03-01T05:34:48;101630.67;;;0.54;56.47
76519;BME280;67029;51.054;13.798;2023-03-01T05:37:18;101631.66;;;0.55;56.55
76519;BME280;67029;51.054;13.798;2023-03-01T05:39:48;101628.09;;;0.55;56.50
76519;BME280;67029;51.054;13.798;2023-03-01T05:42:18;101626.67;;;0.52;56.45
76519;BME280;67029;51.054;13.798;2023-03-01T05:44:48;101631.03;;;0.50;56.43
76519;BME280;67029;51.054;13.798;2023-03-01T05:47:18;101626.43;;;0.46;56.31
76519;BME280;67029;51.054;13.798;2023-03-01T05:49:48;101630.06;;;0.39;56.43
76519;BME280;67029;51.054;13.798;2023-03-01T05:52:18;101627.45;;;0.36;56.54
76519;BME280;67029;51.054;13.798;2023-03-01T05:54:48;101626.12;;;0.39;56.75
76519;BME280;67029;51.054;13.798;2023-03-01T05:57:18;101629.98;;;0.39;56.61
76519;BME280;67029;51.054;13.798;2023-03-01T05:59:48;101635.30;;;0.39;56.59
76519;BME280;67029;51.054;13.798;2023-03-01T06:02:18;101636.01;;;0.38;56.62
76519;BME280;67029;51.054;13.798;2023-03-01T06:04:49;101637.53;;;0.37;56.46
76519;BME280;67029;51.054;13.798;2023-03-01T06:07:19;101639.09;;;0.38;56.55
76519;BME280;67029;51.054;13.798;2023-03-01T06:09:49;101639.09;;;0.38;56.49
76519;BME280;67029;51.054;13.798;2023-03-01T06:12:19;101642.30;;;0.41;56.62
76519;BME280;67029;51.054;13.798;2023-03-01T06:14:49;101637.44;;;0.40;56.63
76519;BME280;67029;51.054;13.798;2023-03-01T06:17:19;101634.80;;;0.39;56.48
76519;BME280;67029;51.054;13.798;2023-03-01T06:19:49;101644.42;;;0.38;56.58
76519;BME280;67029;51.054;13.798;2023-03-01T06:22:19;101638.61;;;0.40;56.69
76519;BME280;67029;51.054;13.798;2023-03-01T06:24:49;101642.47;;;0.41;56.54
76519;BME280;67029;51.054;13.798;2023-03-01T06:27:19;101645.83;;;0.40;56.47
76519;BME280;67029;51.054;13.798;2023-03-01T06:29:49;101650.84;;;0.40;56.50
76519;BME280;67029;51.054;13.798;2023-03-01T06:32:19;101653.02;;;0.44;56.52
76519;BME280;67029;51.054;13.798;2023-03-01T06:34:49;101651.71;;;0.43;56.39
76519;BME280;67029;51.054;13.798;2023-03-01T06:37:19;101657.58;;;0.44;56.44
76519;BME280;67029;51.054;13.798;2023-03-01T06:39:49;101654.27;;;0.44;56.44
76519;BME280;67029;51.054;13.798;2023-03-01T06:42:19;101657.28;;;0.37;56.36
76519;BME280;67029;51.054;13.798;2023-03-01T06:44:49;101659.50;;;0.41;56.62
76519;BME280;67029;51.054;13.798;2023-03-01T06:47:19;101659.80;;;0.45;56.48
76519;BME280;67029;51.054;13.798;2023-03-01T06:49:49;101663.71;;;0.48;56.45
76519;BME280;67029;51.054;13.798;2023-03-01T06:52:19;101659.23;;;0.50;56.45
76519;BME280;67029;51.054;13.798;2023-03-01T06:54:49;101660.36;;;0.53;56.49
76519;BME280;67029;51.054;13.798;2023-03-01T06:57:19;101658.58;;;0.58;56.52
76519;BME280;67029;51.054;13.798;2023-03-01T06:59:50;101662.11;;;0.64;56.49
76519;BME280;67029;51.054;13.798;2023-03-01T07:02:19;101654.91;;;0.68;56.41
76519;BME280;67029;51.054;13.798;2023-03-01T07:04:51;101650.84;;;0.72;56.35
76519;BME280;67029;51.054;13.798;2023-03-01T07:07:20;101649.78;;;0.56;56.27
76519;BME280;67029;51.054;13.798;2023-03-01T07:09:50;101653.12;;;0.57;56.50
76519;BME280;67029;51.054;13.798;2023-03-01T07:12:20;101652.34;;;0.64;56.47
76519;BME280;67029;51.054;13.798;2023-03-01T07:14:50;101651.83;;;0.73;56.46
76519;BME280;67029;51.054;13.798;2023-03-01T07:17:20;101646.05;;;0.79;56.46
76519;BME280;67029;51.054;13.798;2023-03-01T07:19:50;101646.47;;;0.88;56.42
76519;BME280;67029;51.054;13.798;2023-03-01T07:22:20;101640.91;;;0.96;56.45
76519;BME280;67029;51.054;13.798;2023-03-01T07:24:50;101636.83;;;1.01;56.37
76519;BME280;67029;51.054;13.798;2023-03-01T07:27:20;101636.39;;;1.19;56.25
76519;BME280;67029;51.054;13.798;2023-03-01T07:29:50;101630.66;;;1.36;56.05
76519;BME280;67029;51.054;13.798;2023-03-01T07:32:20;101628.32;;;1.53;56.05
76519;BME280;67029;51.054;13.798;2023-03-01T07:34:50;101632.55;;;1.72;55.94
76519;BME280;67029;51.054;13.798;2023-03-01T07:37:20;101634.36;;;2.01;55.65
76519;BME280;67029;51.054;13.798;2023-03-01T07:39:50;101629.80;;;2.28;55.37
76519;BME280;67029;51.054;13.798;2023-03-01T07:42:20;101622.30;;;2.57;54.82
76519;BME280;67029;51.054;13.798;2023-03-01T07:44:51;101626.67;;;2.88;54.42
76519;BME280;67029;51.054;13.798;2023-03-01T07:47:21;101624.80;;;3.09;53.94
76519;BME280;67029;51.054;13.798;2023-03-01T07:49:51;101622.52;;;3.38;53.51
76519;BME280;67029;51.054;13.798;2023-03-01T07:52:21;101626.78;;;3.73;53.34
76519;BME280;67029;51.054;13.798;2023-03-01T07:54:51;101616.66;;;4.12;52.74
76519;BME280;67029;51.054;13.798;2023-03-01T07:57:22;101615.21;;;4.55;52.37
76519;BME280;67029;51.054;13.798;2023-03-01T07:59:52;101612.36;;;4.99;51.81
76519;BME280;67029;51.054;13.798;2023-03-01T08:02:22;101607.44;;;5.35;50.99
76519;BME280;67029;51.054;13.798;2023-03-01T08:04:52;101597.22;;;5.72;49.59
76519;BME280;67029;51.054;13.798;2023-03-01T08:07:22;101591.81;;;6.05;48.35
76519;BME280;67029;51.054;13.798;2023-03-01T08:09:52;101587.06;;;6.34;47.52
76519;BME280;67029;51.054;13.798;2023-03-01T08:12:22;101580.56;;;6.65;47.18
76519;BME280;67029;51.054;13.798;2023-03-01T08:14:52;101580.39;;;6.92;46.40
76519;BME280;67029;51.054;13.798;2023-03-01T08:17:23;101584.91;;;7.19;46.28
76519;BME280;67029;51.054;13.798;2023-03-01T08:19:53;101585.68;;;7.49;45.48
76519;BME280;67029;51.054;13.798;2023-03-01T08:22:23;101580.79;;;7.82;45.78
76519;BME280;67029;51.054;13.798;2023-03-01T08:24:53;101571.14;;;8.19;45.14
76519;BME280;67029;51.054;13.798;2023-03-01T08:27:23;101573.38;;;8.58;44.53
76519;BME280;67029;51.054;13.798;2023-03-01T08:29:53;101570.66;;;8.93;43.47
76519;BME280;67029;51.054;13.798;2023-03-01T08:32:23;101565.10;;;9.29;43.12
76519;BME280;67029;51.054;13.798;2023-03-01T08:34:53;101570.29;;;9.65;42.60
76519;BME280;67029;51.054;13.798;2023-03-01T08:37:23;101568.19;;;10.02;41.66
76519;BME280;67029;51.054;13.798;2023-03-01T08:39:53;101566.45;;;10.32;41.34
76519;BME280;67029;51.054;13.798;2023-03-01T08:42:23;101555.39;;;10.59;39.55
76519;BME280;67029;51.054;13.798;2023-03-01T08:44:53;101559.50;;;10.72;39.38
76519;BME280;67029;51.054;13.798;2023-03-01T08:47:23;101556.10;;;11.01;38.60
76519;BME280;67029;51.054;13.798;2023-03-01T08:49:53;101556.67;;;11.22;37.91
76519;BME280;67029;51.054;13.798;2023-03-01T08:52:23;101556.56;;;11.41;37.18
76519;BME280;67029;51.054;13.798;2023-03-01T08:54:53;101559.25;;;11.56;36.56
76519;BME280;67029;51.054;13.798;2023-03-01T08:57:24;101559.00;;;11.76;37.70
76519;BME280;67029;51.054;13.798;2023-03-01T08:59:53;101556.53;;;12.08;37.19
76519;BME280;67029;51.054;13.798;2023-03-01T09:02:23;101552.25;;;12.44;37.57
76519;BME280;67029;51.054;13.798;2023-03-01T09:04:53;101551.12;;;12.85;37.06
76519;BME280;67029;51.054;13.798;2023-03-01T09:07:24;101541.38;;;13.21;35.84
76519;BME280;67029;51.054;13.798;2023-03-01T09:09:54;101541.18;;;13.49;35.08
76519;BME280;67029;51.054;13.798;2023-03-01T09:12:23;101536.56;;;13.80;34.32
76519;BME280;67029;51.054;13.798;2023-03-01T09:14:54;101532.09;;;14.07;33.88
76519;BME280;67029;51.054;13.798;2023-03-01T09:17:24;101529.11;;;14.23;32.45
76519;BME280;67029;51.054;13.798;2023-03-01T09:19:54;101518.59;;;14.29;32.19
76519;BME280;67029;51.054;13.798;2023-03-01T09:22:24;101508.67;;;14.38;32.36
76519;BME280;67029;51.054;13.798;2023-03-01T09:24:54;101506.80;;;14.65;33.29
76519;BME280;67029;51.054;13.798;2023-03-01T09:27:25;101503.15;;;14.97;33.38
76519;BME280;67029;51.054;13.798;2023-03-01T09:29:54;101494.61;;;15.30;32.45
76519;BME280;67029;51.054;13.798;2023-03-01T09:32:24;101498.04;;;15.52;30.96
76519;BME280;67029;51.054;13.798;2023-03-01T09:34:55;101497.47;;;15.71;30.62
76519;BME280;67029;51.054;13.798;2023-03-01T09:37:25;101491.73;;;15.86;30.35
76519;BME280;67029;51.054;13.798;2023-03-01T09:39:55;101496.02;;;16.05;29.76
76519;BME280;67029;51.054;13.798;2023-03-01T09:42:27;101494.39;;;16.22;30.59
76519;BME280;67029;51.054;13.798;2023-03-01T09:45:18;101495.21;;;16.64;30.31
76519;BME280;67029;51.054;13.798;2023-03-01T09:47:29;101498.00;;;16.93;29.99
76519;BME280;67029;51.054;13.798;2023-03-01T09:50:02;101490.58;;;17.27;29.22
76519;BME280;67029;51.054;13.798;2023-03-01T09:52:43;101491.36;;;17.55;28.15
76519;BME280;67029;51.054;13.798;2023-03-01T09:54:58;101486.77;;;17.76;27.76
76519;BME280;67029;51.054;13.798;2023-03-01T09:57:38;101488.02;;;17.99;28.50
76519;BME280;67029;51.054;13.798;2023-03-01T10:00:24;101487.62;;;18.39;27.31
76519;BME280;67029;51.054;13.798;2023-03-01T10:02:43;101480.27;;;18.61;26.80
76519;BME280;67029;51.054;13.798;2023-03-01T10:05:10;101479.23;;;18.83;26.53
76519;BME280;67029;51.054;13.798;2023-03-01T10:08:02;101475.20;;;19.08;26.44
76519;BME280;67029;51.054;13.798;2023-03-01T10:10:04;101480.39;;;19.35;26.49
76519;BME280;67029;51.054;13.798;2023-03-01T10:12:37;101481.20;;;19.72;27.43
76519;BME280;67029;51.054;13.798;2023-03-01T10:15:15;101478.13;;;20.09;25.61
76519;BME280;67029;51.054;13.798;2023-03-01T10:17:37;101479.72;;;20.41;26.40
76519;BME280;67029;51.054;13.798;2023-03-01T10:20:24;101478.71;;;20.76;24.97
76519;BME280;67029;51.054;13.798;2023-03-01T10:22:36;101480.47;;;20.94;25.34
76519;BME280;67029;51.054;13.798;2023-03-01T10:25:05;101477.70;;;21.32;24.77
76519;BME280;67029;51.054;13.798;2023-03-01T10:27:51;101474.25;;;21.62;25.26
76519;BME280;67029;51.054;13.798;2023-03-01T10:30:16;101474.28;;;21.98;24.40
76519;BME280;67029;51.054;13.798;2023-03-01T10:32:36;101470.00;;;22.32;24.25
76519;BME280;67029;51.054;13.798;2023-03-01T10:35:23;101462.97;;;22.62;24.17
76519;BME280;67029;51.054;13.798;2023-03-01T10:37:56;101460.23;;;22.91;23.37
76519;BME280;67029;51.054;13.798;2023-03-01T10:40:08;101458.72;;;23.15;23.87
76519;BME280;67029;51.054;13.798;2023-03-01T10:42:39;101457.41;;;23.52;23.37
76519;BME280;67029;51.054;13.798;2023-03-01T10:45:37;101453.72;;;23.78;22.34
76519;BME280;67029;51.054;13.798;2023-03-01T10:47:38;101451.75;;;23.81;21.47
76519;BME280;67029;51.054;13.798;2023-03-01T10:50:22;101451.95;;;23.84;21.93
76519;BME280;67029;51.054;13.798;2023-03-01T10:53:02;101444.66;;;24.00;21.75
76519;BME280;67029;51.054;13.798;2023-03-01T10:55:27;101437.51;;;24.03;21.45
76519;BME280;67029;51.054;13.798;2023-03-01T10:57:40;101430.17;;;24.09;21.67
76519;BME280;67029;51.054;13.798;2023-03-01T11:00:18;101425.08;;;24.18;20.46
76519;BME280;67029;51.054;13.798;2023-03-01T11:02:41;101426.11;;;24.23;20.84
76519;BME280;67029;51.054;13.798;2023-03-01T11:05:20;101425.02;;;24.30;20.29
76519;BME280;67029;51.054;13.798;2023-03-01T11:07:53;101419.12;;;24.35;20.39
76519;BME280;67029;51.054;13.798;2023-03-01T11:10:15;101422.94;;;24.33;19.28
76519;BME280;67029;51.054;13.798;2023-03-01T11:12:42;101416.48;;;24.28;19.83
76519;BME280;67029;51.054;13.798;2023-03-01T11:15:24;101412.59;;;24.25;19.40
76519;BME280;67029;51.054;13.798;2023-03-01T11:17:43;101405.88;;;24.27;19.45
76519;BME280;67029;51.054;13.798;2023-03-01T11:20:25;101407.99;;;24.27;19.99
76519;BME280;67029;51.054;13.798;2023-03-01T11:22:56;101404.27;;;24.24;18.47
76519;BME280;67029;51.054;13.798;2023-03-01T11:25:15;101402.30;;;24.22;19.54
76519;BME280;67029;51.054;13.798;2023-03-01T11:27:46;101402.66;;;24.43;19.47
76519;BME280;67029;51.054;13.798;2023-03-01T11:30:21;101408.41;;;24.55;19.81
76519;BME280;67029;51.054;13.798;2023-03-01T11:32:50;101407.11;;;24.74;19.55
76519;BME280;67029;51.054;13.798;2023-03-01T11:35:24;101405.08;;;25.04;19.87
76519;BME280;67029;51.054;13.798;2023-03-01T11:42:58;101402.14;;;25.47;19.42
76519;BME280;67029;51.054;13.798;2023-03-01T11:45:19;101404.66;;;25.72;19.36
76519;BME280;67029;51.054;13.798;2023-03-01T11:50:26;101401.77;;;26.01;18.16
76519;BME280;67029;51.054;13.798;2023-03-01T12:00:41;101394.03;;;26.06;16.96
76519;BME280;67029;51.054;13.798;2023-03-01T12:03:08;101392.33;;;26.04;17.11
76519;BME280;67029;51.054;13.798;2023-03-01T12:08:15;101382.94;;;26.07;17.52
76519;BME280;67029;51.054;13.798;2023-03-01T12:10:50;101378.32;;;26.11;16.80
76519;BME280;67029;51.054;13.798;2023-03-01T12:15:37;101374.38;;;26.31;16.31
76519;BME280;67029;51.054;13.798;2023-03-01T12:25:48;101373.25;;;26.15;17.07
76519;BME280;67029;51.054;13.798;2023-03-01T12:31:00;101368.16;;;25.96;16.23
76519;BME280;67029;51.054;13.798;2023-03-01T12:38:05;101355.97;;;25.59;17.53
76519;BME280;67029;51.054;13.798;2023-03-01T12:43:27;101352.48;;;25.41;17.81
76519;BME280;67029;51.054;13.798;2023-03-01T12:46:10;101342.72;;;25.43;18.09
76519;BME280;67029;51.054;13.798;2023-03-01T12:48:26;101344.97;;;25.50;17.41
76519;BME280;67029;51.054;13.798;2023-03-01T12:50:41;101344.31;;;25.42;17.87
76519;BME280;67029;51.054;13.798;2023-03-01T12:52:59;101349.08;;;25.48;18.08
76519;BME280;67029;51.054;13.798;2023-03-01T12:55:33;101340.52;;;25.45;17.29
76519;BME280;67029;51.054;13.798;2023-03-01T12:58:13;101340.12;;;25.34;17.22
76519;BME280;67029;51.054;13.798;2023-03-01T13:00:40;101332.89;;;25.26;17.31
76519;BME280;67029;51.054;13.798;2023-03-01T13:05:42;101325.08;;;25.20;17.52
76519;BME280;67029;51.054;13.798;2023-03-01T13:08:21;101325.84;;;25.13;18.37
76519;BME280;67029;51.054;13.798;2023-03-01T13:10:52;101325.34;;;25.10;17.68
76519;BME280;67029;51.054;13.798;2023-03-01T13:13:14;101325.70;;;24.99;17.81
76519;BME280;67029;51.054;13.798;2023-03-01T13:15:34;101322.04;;;24.94;17.74
76519;BME280;67029;51.054;13.798;2023-03-01T13:23:10;101310.40;;;25.01;18.16
76519;BME280;67029;51.054;13.798;2023-03-01T13:26:02;101314.59;;;25.13;18.28
76519;BME280;67029;51.054;13.798;2023-03-01T13:30:40;101315.07;;;25.30;17.34
76519;BME280;67029;51.054;13.798;2023-03-01T13:35:44;101321.63;;;25.16;17.24
76519;BME280;67029;51.054;13.798;2023-03-01T13:38:38;101316.72;;;25.11;17.26
76519;BME280;67029;51.054;13.798;2023-03-01T13:40:57;101312.14;;;25.00;16.67
76519;BME280;67029;51.054;13.798;2023-03-01T13:43:45;101306.80;;;24.78;17.57
76519;BME280;67029;51.054;13.798;2023-03-01T13:45:40;101307.88;;;24.77;17.67
76519;BME280;67029;51.054;13.798;2023-03-01T13:48:14;101304.91;;;24.76;16.96
76519;BME280;67029;51.054;13.798;2023-03-01T13:51:02;101303.47;;;24.57;16.78
76519;BME280;67029;51.054;13.798;2023-03-01T13:53:14;101309.80;;;24.38;17.72
76519;BME280;67029;51.054;13.798;2023-03-01T13:55:44;101315.21;;;24.40;18.26
76519;BME280;67029;51.054;13.798;2023-03-01T13:58:21;101310.09;;;24.42;17.59